sensor_id;sensor_type;location;lat;lon;timestamp;P1;durP1;ratioP1;P2;durP2;ratioP2
19810;SDS011;10065;49.632;8.346;2023-05-15T05:50:26;6.90;;;3.77;;
19810;SDS011;10065;49.632;8.346;2023-05-15T05:53:42;7.20;;;3.70;;
19810;SDS011;10065;49.632;8.346;2023-05-15T06:59:04;11.07;;;7.53;;
19810;SDS011;10065;49.632;8.346;2023-05-15T19:27:15;12.03;;;9.87;;
19810;SDS011;10065;49.632;8.346;2023-05-15T19:29:43;15.40;;;10.27;;
19810;SDS011;10065;49.632;8.346;2023-05-15T19:32:11;14.37;;;10.53;;
19810;SDS011;10065;49.632;8.346;2023-05-15T19:34:39;13.13;;;10.50;;
19810;SDS011;10065;49.632;8.346;2023-05-15T19:37:07;14.27;;;10.37;;
19810;SDS011;10065;49.632;8.346;2023-05-15T19:39:34;17.63;;;11.10;;
19810;SDS011;10065;49.632;8.346;2023-05-15T19:42:02;15.83;;;11.10;;
19810;SDS011;10065;49.632;8.346;2023-05-15T19:44:31;14.80;;;10.40;;
19810;SDS011;10065;49.632;8.346;2023-05-15T19:46:59;15.60;;;11.20;;
19810;SDS011;10065;49.632;8.346;2023-05-15T19:49:27;16.07;;;10.47;;
19810;SDS011;10065;49.632;8.346;2023-05-15T19:51:54;12.90;;;11.40;;
19810;SDS011;10065;49.632;8.346;2023-05-15T19:54:22;13.67;;;11.20;;
19810;SDS011;10065;49.632;8.346;2023-05-15T19:56:50;15.57;;;11.63;;
19810;SDS011;10065;49.632;8.346;2023-05-15T19:59:18;18.47;;;11.27;;
19810;SDS011;10065;49.632;8.346;2023-05-15T20:01:47;15.67;;;11.30;;
19810;SDS011;10065;49.632;8.346;2023-05-15T20:04:14;15.97;;;12.17;;
19810;SDS011;10065;49.632;8.346;2023-05-15T20:06:42;19.10;;;12.23;;
19810;SDS011;10065;49.632;8.346;2023-05-15T20:09:10;18.27;;;12.13;;
19810;SDS011;10065;49.632;8.346;2023-05-15T20:11:38;15.50;;;11.93;;
19810;SDS011;10065;49.632;8.346;2023-05-15T20:14:05;15.83;;;12.60;;
19810;SDS011;10065;49.632;8.346;2023-05-15T20:16:33;17.97;;;11.73;;
19810;SDS011;10065;49.632;8.346;2023-05-15T20:19:03;21.53;;;11.37;;
19810;SDS011;10065;49.632;8.346;2023-05-15T20:21:31;15.50;;;11.53;;
19810;SDS011;10065;49.632;8.346;2023-05-15T20:23:59;14.73;;;12.00;;
19810;SDS011;10065;49.632;8.346;2023-05-15T20:26:26;16.57;;;12.00;;
19810;SDS011;10065;49.632;8.346;2023-05-15T20:28:54;14.00;;;10.90;;
19810;SDS011;10065;49.632;8.346;2023-05-15T20:31:22;16.80;;;11.90;;
19810;SDS011;10065;49.632;8.346;2023-05-15T20:33:50;16.23;;;11.50;;
19810;SDS011;10065;49.632;8.346;2023-05-15T20:36:19;15.80;;;12.17;;
19810;SDS011;10065;49.632;8.346;2023-05-15T20:38:47;16.73;;;12.00;;
19810;SDS011;10065;49.632;8.346;2023-05-15T20:41:15;18.17;;;12.73;;
19810;SDS011;10065;49.632;8.346;2023-05-15T20:43:45;18.47;;;14.23;;
19810;SDS011;10065;49.632;8.346;2023-05-15T20:46:12;19.90;;;14.00;;
19810;SDS011;10065;49.632;8.346;2023-05-15T20:48:40;15.67;;;12.93;;
19810;SDS011;10065;49.632;8.346;2023-05-15T20:51:08;19.67;;;13.90;;
19810;SDS011;10065;49.632;8.346;2023-05-15T20:53:37;18.20;;;14.70;;
19810;SDS011;10065;49.632;8.346;2023-05-15T20:56:05;20.73;;;14.90;;
19810;SDS011;10065;49.632;8.346;2023-05-15T20:58:33;22.87;;;17.37;;
19810;SDS011;10065;49.632;8.346;2023-05-15T21:01:01;25.80;;;17.77;;
19810;SDS011;10065;49.632;8.346;2023-05-15T21:03:29;24.53;;;17.37;;
19810;SDS011;10065;49.632;8.346;2023-05-15T21:05:57;29.37;;;20.00;;
19810;SDS011;10065;49.632;8.346;2023-05-15T21:08:24;29.13;;;18.90;;
19810;SDS011;10065;49.632;8.346;2023-05-15T21:10:55;26.03;;;19.30;;
19810;SDS011;10065;49.632;8.346;2023-05-15T21:13:22;26.57;;;18.93;;
19810;SDS011;10065;49.632;8.346;2023-05-15T21:15:52;28.10;;;20.50;;
19810;SDS011;10065;49.632;8.346;2023-05-15T21:18:20;26.20;;;19.60;;
19810;SDS011;10065;49.632;8.346;2023-05-15T21:20:49;23.57;;;19.07;;
19810;SDS011;10065;49.632;8.346;2023-05-15T21:23:18;25.83;;;18.63;;
19810;SDS011;10065;49.632;8.346;2023-05-15T21:25:47;26.50;;;19.37;;
19810;SDS011;10065;49.632;8.346;2023-05-15T21:28:16;23.63;;;18.97;;
19810;SDS011;10065;49.632;8.346;2023-05-15T21:30:43;24.80;;;18.67;;
19810;SDS011;10065;49.632;8.346;2023-05-15T21:33:11;23.53;;;18.20;;
19810;SDS011;10065;49.632;8.346;2023-05-15T21:35:39;26.77;;;18.30;;
19810;SDS011;10065;49.632;8.346;2023-05-15T21:38:07;26.03;;;19.80;;
19810;SDS011;10065;49.632;8.346;2023-05-15T21:40:35;28.87;;;19.50;;
19810;SDS011;10065;49.632;8.346;2023-05-15T21:43:02;24.30;;;17.80;;
19810;SDS011;10065;49.632;8.346;2023-05-15T21:45:31;24.17;;;18.20;;
19810;SDS011;10065;49.632;8.346;2023-05-15T21:47:59;28.13;;;17.27;;
19810;SDS011;10065;49.632;8.346;2023-05-15T21:50:27;25.20;;;17.60;;
19810;SDS011;10065;49.632;8.346;2023-05-15T21:52:55;21.97;;;18.10;;
19810;SDS011;10065;49.632;8.346;2023-05-15T21:55:23;23.47;;;17.60;;
19810;SDS011;10065;49.632;8.346;2023-05-15T21:57:51;24.03;;;17.53;;
19810;SDS011;10065;49.632;8.346;2023-05-15T22:00:19;23.17;;;16.83;;
19810;SDS011;10065;49.632;8.346;2023-05-15T22:02:48;19.50;;;15.20;;
19810;SDS011;10065;49.632;8.346;2023-05-15T22:05:16;25.73;;;17.87;;
19810;SDS011;10065;49.632;8.346;2023-05-15T22:07:44;20.07;;;15.70;;
19810;SDS011;10065;49.632;8.346;2023-05-15T22:10:12;22.27;;;16.27;;
19810;SDS011;10065;49.632;8.346;2023-05-15T22:12:41;22.30;;;15.37;;
19810;SDS011;10065;49.632;8.346;2023-05-15T22:15:10;22.07;;;16.20;;
19810;SDS011;10065;49.632;8.346;2023-05-15T22:17:39;21.63;;;16.37;;
19810;SDS011;10065;49.632;8.346;2023-05-15T22:20:09;22.53;;;16.00;;
19810;SDS011;10065;49.632;8.346;2023-05-15T22:22:39;22.40;;;15.97;;
19810;SDS011;10065;49.632;8.346;2023-05-15T22:25:08;24.10;;;17.10;;
19810;SDS011;10065;49.632;8.346;2023-05-15T22:27:36;25.43;;;16.80;;
19810;SDS011;10065;49.632;8.346;2023-05-15T22:30:04;25.37;;;17.23;;
19810;SDS011;10065;49.632;8.346;2023-05-15T22:32:33;25.87;;;18.40;;
19810;SDS011;10065;49.632;8.346;2023-05-15T22:35:01;29.23;;;18.10;;
19810;SDS011;10065;49.632;8.346;2023-05-15T22:37:31;25.63;;;18.50;;
19810;SDS011;10065;49.632;8.346;2023-05-15T22:39:58;27.37;;;20.17;;
19810;SDS011;10065;49.632;8.346;2023-05-15T22:42:26;29.10;;;18.90;;
19810;SDS011;10065;49.632;8.346;2023-05-15T22:44:54;33.87;;;21.87;;
19810;SDS011;10065;49.632;8.346;2023-05-15T22:47:23;28.57;;;21.03;;
19810;SDS011;10065;49.632;8.346;2023-05-15T22:49:51;31.67;;;22.07;;
19810;SDS011;10065;49.632;8.346;2023-05-15T22:52:19;31.23;;;22.40;;
19810;SDS011;10065;49.632;8.346;2023-05-15T22:54:48;31.13;;;23.87;;
19810;SDS011;10065;49.632;8.346;2023-05-15T22:57:16;33.63;;;24.60;;
19810;SDS011;10065;49.632;8.346;2023-05-15T22:59:44;34.07;;;24.07;;
19810;SDS011;10065;49.632;8.346;2023-05-15T23:02:12;38.33;;;26.03;;
19810;SDS011;10065;49.632;8.346;2023-05-15T23:04:39;38.10;;;26.33;;
19810;SDS011;10065;49.632;8.346;2023-05-15T23:07:08;39.93;;;28.63;;
19810;SDS011;10065;49.632;8.346;2023-05-15T23:09:36;43.30;;;28.23;;
19810;SDS011;10065;49.632;8.346;2023-05-15T23:12:05;41.77;;;27.47;;
19810;SDS011;10065;49.632;8.346;2023-05-15T23:14:33;42.60;;;29.40;;
19810;SDS011;10065;49.632;8.346;2023-05-15T23:17:01;45.70;;;29.97;;
19810;SDS011;10065;49.632;8.346;2023-05-15T23:19:29;42.33;;;29.13;;
19810;SDS011;10065;49.632;8.346;2023-05-15T23:21:57;43.37;;;31.47;;
19810;SDS011;10065;49.632;8.346;2023-05-15T23:24:24;50.77;;;30.73;;
19810;SDS011;10065;49.632;8.346;2023-05-15T23:26:52;44.73;;;31.27;;
19810;SDS011;10065;49.632;8.346;2023-05-15T23:29:21;47.63;;;31.03;;
19810;SDS011;10065;49.632;8.346;2023-05-15T23:31:49;49.63;;;31.17;;
19810;SDS011;10065;49.632;8.346;2023-05-15T23:34:17;47.43;;;31.20;;
19810;SDS011;10065;49.632;8.346;2023-05-15T23:36:45;47.97;;;30.47;;
19810;SDS011;10065;49.632;8.346;2023-05-15T23:39:12;43.57;;;31.23;;
19810;SDS011;10065;49.632;8.346;2023-05-15T23:41:41;46.37;;;30.23;;
19810;SDS011;10065;49.632;8.346;2023-05-15T23:44:08;48.00;;;32.83;;
19810;SDS011;10065;49.632;8.346;2023-05-15T23:46:37;41.43;;;28.60;;
19810;SDS011;10065;49.632;8.346;2023-05-15T23:49:05;43.90;;;28.63;;
19810;SDS011;10065;49.632;8.346;2023-05-15T23:51:33;48.73;;;30.87;;
19810;SDS011;10065;49.632;8.346;2023-05-15T23:54:01;45.77;;;29.80;;
19810;SDS011;10065;49.632;8.346;2023-05-15T23:56:28;40.40;;;27.93;;
19810;SDS011;10065;49.632;8.346;2023-05-15T23:58:56;43.03;;;29.70;;
